Elena Ve — A8WB4 — position and weather

sailwx.info

Track history (hours):
 
Tides and Currents Weather Stations Pressure Air Temp Water Temp Dewpoint Dewpoint Depression Visibility Wind Speed Wind Dir Waves Ship Positions

Elena Ve

Last reported at 2017-Oct-26 07:24 UTC. Time now 2017-Nov-20 06:24 UTC.
Position N 30°56' E 032°19'.
Warning: this ship's position is 24 days out of date.

Length 225 m; draft 13.1 m.

Type: Cargo ship. MMSI: 636014709.

Date/timePositionNaut miles runAvg speedWind from/ knotsBaromVisibWave heightAir tempDewpointWater temp
2017-Oct-26 07:24N 30°56' E 032°19'4 8.8
2017-Oct-26 06:55N 31°01' E 032°19'3 8.6
2017-Oct-26 06:30N 31°04' E 032°19'4 8.5
2017-Oct-26 06:00N 31°08' E 032°19'4 8.2
2017-Oct-26 05:30N 31°12' E 032°20'  
2017-Oct-22 08:33N 35°53' E 015°17'112.5
2017-Oct-22 08:29N 35°53' E 015°16'712.3
2017-Oct-22 07:56N 35°54' E 015°08'512.1
2017-Oct-22 07:30N 35°55' E 015°01'612.1
2017-Oct-22 07:01N 35°55' E 014°54'611.6
2017-Oct-22 06:30N 35°56' E 014°47'2 4.5
2017-Oct-22 06:00N 35°54' E 014°45'0 0.4
2017-Oct-22 05:25N 35°54' E 014°45'0 0.0
2017-Oct-22 04:22N 35°54' E 014°45'0 0.0
2017-Oct-22 03:34N 35°54' E 014°45'0 0.1
2017-Oct-22 03:28N 35°54' E 014°45'0 0.0
2017-Oct-22 02:55N 35°54' E 014°45'0 0.0
2017-Oct-22 02:28N 35°54' E 014°45'0 0.0
2017-Oct-22 01:55N 35°54' E 014°45'0 0.0
2017-Oct-22 01:10N 35°54' E 014°45'0 0.0
2017-Oct-22 00:58N 35°54' E 014°45'0 0.0
2017-Oct-22 00:28N 35°54' E 014°45'0 0.0
2017-Oct-21 23:58N 35°54' E 014°45'0 0.0
2017-Oct-21 23:28N 35°54' E 014°45'0 0.0
2017-Oct-21 22:07N 35°54' E 014°45'0 0.0
2017-Oct-21 19:04N 35°54' E 014°45'0 0.8
2017-Oct-21 18:59N 35°54' E 014°45'2 4.7
2017-Oct-21 18:31N 35°55' E 014°42'5 9.1
2017-Oct-21 18:00N 35°57' E 014°37'4 7.4
2017-Oct-21 17:30N 35°59' E 014°33'5 9.5
2017-Oct-21 17:00N 36°01' E 014°28'510.5
2017-Oct-21 16:31N 36°04' E 014°23'510.4
2017-Oct-21 16:00N 36°08' E 014°18'510.6
2017-Oct-21 15:30N 36°10' E 014°12'510.7
2017-Oct-21 15:00N 36°13' E 014°06'510.8
2017-Oct-21 14:30N 36°15' E 013°60'1111.2
2017-Oct-21 13:30N 36°20' E 013°47'  
2017-Oct-18 03:33N 35°59' W 005°11'113.9
2017-Oct-18 03:30N 35°59' W 005°12'714.0
2017-Oct-18 03:01N 35°59' W 005°20'713.6
2017-Oct-18 02:31N 35°57' W 005°28'712.8
2017-Oct-18 01:59N 35°55' W 005°36'612.4
2017-Oct-18 01:28N 35°54' W 005°44'612.9
2017-Oct-18 01:00N 35°54' W 005°51'13211.8
2017-Oct-17 13:48N 36°24' W 008°31'312.0
2017-Oct-17 13:31N 36°24' W 008°35'11610.5
2017-Oct-17 02:30N 38°01' W 009°54'611.8
2017-Oct-17 02:01N 38°07' W 009°56'611.6
2017-Oct-17 01:30N 38°13' W 009°58'611.2
2017-Oct-17 01:00N 38°18' W 009°60'611.4
2017-Oct-17 00:31N 38°24' W 010°01'611.6
2017-Oct-17 00:01N 38°29' W 010°03'611.6
2017-Oct-16 23:30N 38°35' W 010°04'611.7
2017-Oct-16 23:00N 38°41' W 010°06'612.0
2017-Oct-16 22:31N 38°47' W 010°06'611.9
2017-Oct-16 22:01N 38°53' W 010°06'611.5
2017-Oct-16 21:30N 38°58' W 010°07'611.6
2017-Oct-16 21:01N 39°04' W 010°07'611.8
2017-Oct-16 20:30N 39°10' W 010°07'  
Track history (hours):
 
Tides and Currents Weather Stations Pressure Air Temp Water Temp Dewpoint Dewpoint Depression Visibility Wind Speed Wind Dir Waves Ship Positions

Elena Ve

Last reported at 2017-Oct-26 07:24 UTC. Time now 2017-Nov-20 06:24 UTC.
Position N 30°56' E 032°19'.
Warning: this ship's position is 24 days out of date.

Length 225 m; draft 13.1 m.

Type: Cargo ship. MMSI: 636014709.

Date/timePositionNaut miles runAvg speedWind from/ knotsBaromVisibWave heightAir tempDewpointWater temp
2017-Oct-26 07:24N 30°56' E 032°19'4 8.8
2017-Oct-26 06:55N 31°01' E 032°19'3 8.6
2017-Oct-26 06:30N 31°04' E 032°19'4 8.5
2017-Oct-26 06:00N 31°08' E 032°19'4 8.2
2017-Oct-26 05:30N 31°12' E 032°20'  
2017-Oct-22 08:33N 35°53' E 015°17'112.5
2017-Oct-22 08:29N 35°53' E 015°16'712.3
2017-Oct-22 07:56N 35°54' E 015°08'512.1
2017-Oct-22 07:30N 35°55' E 015°01'612.1
2017-Oct-22 07:01N 35°55' E 014°54'611.6
2017-Oct-22 06:30N 35°56' E 014°47'2 4.5
2017-Oct-22 06:00N 35°54' E 014°45'0 0.4
2017-Oct-22 05:25N 35°54' E 014°45'0 0.0
2017-Oct-22 04:22N 35°54' E 014°45'0 0.0
2017-Oct-22 03:34N 35°54' E 014°45'0 0.1
2017-Oct-22 03:28N 35°54' E 014°45'0 0.0
2017-Oct-22 02:55N 35°54' E 014°45'0 0.0
2017-Oct-22 02:28N 35°54' E 014°45'0 0.0
2017-Oct-22 01:55N 35°54' E 014°45'0 0.0
2017-Oct-22 01:10N 35°54' E 014°45'0 0.0
2017-Oct-22 00:58N 35°54' E 014°45'0 0.0
2017-Oct-22 00:28N 35°54' E 014°45'0 0.0
2017-Oct-21 23:58N 35°54' E 014°45'0 0.0
2017-Oct-21 23:28N 35°54' E 014°45'0 0.0
2017-Oct-21 22:07N 35°54' E 014°45'0 0.0
2017-Oct-21 19:04N 35°54' E 014°45'0 0.8
2017-Oct-21 18:59N 35°54' E 014°45'2 4.7
2017-Oct-21 18:31N 35°55' E 014°42'5 9.1
2017-Oct-21 18:00N 35°57' E 014°37'4 7.4
2017-Oct-21 17:30N 35°59' E 014°33'5 9.5
2017-Oct-21 17:00N 36°01' E 014°28'510.5
2017-Oct-21 16:31N 36°04' E 014°23'510.4
2017-Oct-21 16:00N 36°08' E 014°18'510.6
2017-Oct-21 15:30N 36°10' E 014°12'510.7
2017-Oct-21 15:00N 36°13' E 014°06'510.8
2017-Oct-21 14:30N 36°15' E 013°60'1111.2
2017-Oct-21 13:30N 36°20' E 013°47'  
2017-Oct-18 03:33N 35°59' W 005°11'113.9
2017-Oct-18 03:30N 35°59' W 005°12'714.0
2017-Oct-18 03:01N 35°59' W 005°20'713.6
2017-Oct-18 02:31N 35°57' W 005°28'712.8
2017-Oct-18 01:59N 35°55' W 005°36'612.4
2017-Oct-18 01:28N 35°54' W 005°44'612.9
2017-Oct-18 01:00N 35°54' W 005°51'13211.8
2017-Oct-17 13:48N 36°24' W 008°31'312.0
2017-Oct-17 13:31N 36°24' W 008°35'11610.5
2017-Oct-17 02:30N 38°01' W 009°54'611.8
2017-Oct-17 02:01N 38°07' W 009°56'611.6
2017-Oct-17 01:30N 38°13' W 009°58'611.2
2017-Oct-17 01:00N 38°18' W 009°60'611.4
2017-Oct-17 00:31N 38°24' W 010°01'611.6
2017-Oct-17 00:01N 38°29' W 010°03'611.6
2017-Oct-16 23:30N 38°35' W 010°04'611.7
2017-Oct-16 23:00N 38°41' W 010°06'612.0
2017-Oct-16 22:31N 38°47' W 010°06'611.9
2017-Oct-16 22:01N 38°53' W 010°06'611.5
2017-Oct-16 21:30N 38°58' W 010°07'611.6
2017-Oct-16 21:01N 39°04' W 010°07'611.8
2017-Oct-16 20:30N 39°10' W 010°07'  

Dump ship's entire track history